createdAt,value
2018-04-29T00:02:22.648Z,100690.34
2018-04-29T00:04:51.747Z,100684.08
2018-04-29T00:07:20.787Z,100682.97
2018-04-29T00:09:49.044Z,100683.16
2018-04-29T00:12:18.170Z,100688.45
2018-04-29T00:14:46.450Z,100681.99
2018-04-29T00:17:15.477Z,100688.52
2018-04-29T00:19:44.505Z,100687.33
2018-04-29T00:22:14.540Z,100682.23
2018-04-29T00:24:43.397Z,100673.27
2018-04-29T00:27:11.732Z,100671.63
2018-04-29T00:29:40.002Z,100671.90
2018-04-29T00:32:08.377Z,100669.26
2018-04-29T00:34:36.639Z,100665.69
2018-04-29T00:37:04.923Z,100658.42
2018-04-29T00:39:33.175Z,100655.54
2018-04-29T00:42:01.440Z,100659.96
2018-04-29T00:44:29.716Z,100654.53
2018-04-29T00:46:58.739Z,100660.38
2018-04-29T00:49:26.996Z,100663.77
2018-04-29T00:52:06.958Z,100668.70
2018-04-29T00:54:36.047Z,100680.80
2018-04-29T00:57:04.323Z,100687.62
2018-04-29T00:59:32.682Z,100682.38
2018-04-29T01:02:01.713Z,100669.51
2018-04-29T01:04:30.068Z,100666.11
2018-04-29T01:06:59.115Z,100655.34
2018-04-29T01:09:27.490Z,100664.30
2018-04-29T01:11:55.751Z,100661.77
2018-04-29T01:14:24.986Z,100662.41
2018-04-29T01:16:53.266Z,100659.09
2018-04-29T01:19:22.378Z,100650.59
2018-04-29T01:21:51.403Z,100643.30
2018-04-29T01:24:19.681Z,100632.30
2018-04-29T01:26:48.699Z,100634.48
2018-04-29T01:29:17.080Z,100642.45
2018-04-29T01:31:45.342Z,100636.08
2018-04-29T01:34:13.588Z,100640.45
2018-04-29T01:36:41.867Z,100641.92
2018-04-29T01:39:10.169Z,100645.12
2018-04-29T01:41:38.433Z,100643.78
2018-04-29T01:44:06.823Z,100649.52
2018-04-29T01:46:35.139Z,100648.36
2018-04-29T01:49:03.496Z,100651.03
2018-04-29T01:51:31.831Z,100652.06
2018-04-29T01:54:00.094Z,100650.69
2018-04-29T01:56:28.406Z,100634.27
2018-04-29T01:58:56.747Z,100625.97
2018-04-29T02:01:25.826Z,100623.34
2018-04-29T02:03:54.117Z,100633.18
2018-04-29T02:06:22.399Z,100630.59
2018-04-29T02:08:50.706Z,100620.59
2018-04-29T02:11:19.040Z,100620.83
2018-04-29T02:13:48.068Z,100621.48
2018-04-29T02:16:16.447Z,100624.27
2018-04-29T02:18:44.704Z,100623.39
2018-04-29T02:21:13.909Z,100609.20
2018-04-29T02:23:43.671Z,100608.78
2018-04-29T02:26:11.923Z,100597.08
2018-04-29T02:28:41.051Z,100590.45
2018-04-29T02:31:10.076Z,100595.42
2018-04-29T02:33:38.367Z,100584.76
2018-04-29T02:36:06.764Z,100590.83
2018-04-29T02:38:35.014Z,100592.28
2018-04-29T02:41:03.274Z,100600.44
2018-04-29T02:43:31.715Z,100597.00
2018-04-29T02:46:00.732Z,100595.50
2018-04-29T02:48:29.792Z,100605.01
2018-04-29T02:50:58.142Z,100605.09
2018-04-29T02:53:26.430Z,100609.42
2018-04-29T02:55:55.447Z,100612.88
2018-04-29T02:58:23.836Z,100598.47
2018-04-29T03:00:52.226Z,100590.26
2018-04-29T03:03:20.482Z,100584.76
2018-04-29T03:05:48.822Z,100587.44
2018-04-29T03:08:17.079Z,100588.45
2018-04-29T03:10:46.106Z,100587.73
2018-04-29T03:13:14.430Z,100585.27
2018-04-29T03:15:42.705Z,100581.79
2018-04-29T03:18:11.080Z,100575.91
2018-04-29T03:20:39.373Z,100570.77
2018-04-29T03:23:07.664Z,100569.95
2018-04-29T03:25:35.940Z,100561.70
2018-04-29T03:28:04.227Z,100547.97
2018-04-29T03:30:33.269Z,100542.37
2018-04-29T03:33:01.642Z,100539.09
2018-04-29T03:35:29.929Z,100540.56
2018-04-29T03:37:58.208Z,100538.30
2018-04-29T03:40:26.506Z,100542.42
2018-04-29T03:42:55.609Z,100560.34
2018-04-29T03:45:23.867Z,100558.25
2018-04-29T03:47:52.145Z,100555.94
2018-04-29T03:50:20.427Z,100560.13
2018-04-29T03:52:48.711Z,100558.38
2018-04-29T03:55:17.072Z,100561.43
2018-04-29T03:58:03.869Z,100548.15
2018-04-29T04:00:53.923Z,100544.61
2018-04-29T04:03:39.847Z,100548.52
2018-04-29T04:06:08.232Z,100549.00
2018-04-29T04:08:36.587Z,100543.72
2018-04-29T04:11:04.951Z,100540.98
2018-04-29T04:13:33.266Z,100540.91
2018-04-29T04:16:02.286Z,100538.52
2018-04-29T04:18:30.568Z,100535.91
2018-04-29T04:20:58.857Z,100530.05
2018-04-29T04:23:27.971Z,100526.89
2018-04-29T04:25:56.260Z,100524.95
2018-04-29T04:28:24.588Z,100525.13
2018-04-29T04:30:52.927Z,100527.83
2018-04-29T04:33:22.054Z,100530.77
2018-04-29T04:35:50.343Z,100533.83
2018-04-29T04:38:18.621Z,100542.72
2018-04-29T04:40:47.742Z,100537.19
2018-04-29T04:43:16.559Z,100530.06
2018-04-29T04:45:44.829Z,100530.52
2018-04-29T04:48:13.100Z,100519.03
2018-04-29T04:50:41.357Z,100528.34
2018-04-29T04:53:09.706Z,100531.66
2018-04-29T04:55:38.794Z,100542.55
2018-04-29T04:58:07.968Z,100547.95
2018-04-29T05:00:36.187Z,100542.23
2018-04-29T05:03:05.246Z,100542.67
2018-04-29T05:05:33.510Z,100545.03
2018-04-29T05:08:01.805Z,100555.55
2018-04-29T05:10:30.075Z,100563.11
2018-04-29T05:12:59.213Z,100569.44
2018-04-29T05:15:27.464Z,100573.94
2018-04-29T05:17:56.507Z,100572.19
2018-04-29T05:20:24.799Z,100577.31
2018-04-29T05:22:53.186Z,100570.31
2018-04-29T05:25:21.577Z,100566.48
2018-04-29T05:27:49.837Z,100568.66
2018-04-29T05:30:18.879Z,100562.59
2018-04-29T05:32:47.167Z,100555.81
2018-04-29T05:35:15.437Z,100551.78
2018-04-29T05:37:44.477Z,100543.44
2018-04-29T05:40:12.755Z,100534.77
2018-04-29T05:42:41.044Z,100519.97
2018-04-29T05:45:09.360Z,100506.77
2018-04-29T05:47:37.636Z,100491.37
2018-04-29T05:50:06.025Z,100485.84
2018-04-29T05:52:34.305Z,100474.03
2018-04-29T05:55:02.688Z,100477.34
2018-04-29T05:57:31.710Z,100477.41
2018-04-29T06:00:02.704Z,100474.78
2018-04-29T06:02:30.971Z,100478.25
2018-04-29T06:04:59.237Z,100481.93
2018-04-29T06:07:28.275Z,100489.98
2018-04-29T06:09:56.535Z,100490.54
2018-04-29T06:12:25.552Z,100476.95
2018-04-29T06:14:53.826Z,100479.58
2018-04-29T06:17:22.843Z,100470.02
2018-04-29T06:19:51.106Z,100466.45
2018-04-29T06:22:19.514Z,100467.09
2018-04-29T06:24:48.631Z,100454.47
2018-04-29T06:27:17.732Z,100437.16
2018-04-29T06:29:46.955Z,100429.55
2018-04-29T06:32:15.978Z,100433.37
2018-04-29T06:34:44.461Z,100445.92
2018-04-29T06:37:12.855Z,100457.33
2018-04-29T06:39:41.107Z,100457.13
2018-04-29T06:42:09.433Z,100465.42
2018-04-29T06:44:38.543Z,100465.77
2018-04-29T06:47:06.858Z,100474.69
2018-04-29T06:49:35.115Z,100468.08
2018-04-29T06:52:03.391Z,100484.27
2018-04-29T06:54:32.474Z,100491.36
2018-04-29T06:57:01.488Z,100512.11
2018-04-29T06:59:29.762Z,100523.20
2018-04-29T07:01:58.112Z,100533.05
2018-04-29T07:04:26.382Z,100541.91
2018-04-29T07:06:55.512Z,100538.06
2018-04-29T07:09:24.547Z,100526.08
2018-04-29T07:11:52.807Z,100515.66
2018-04-29T07:14:21.151Z,100504.13
2018-04-29T07:16:50.927Z,100493.27
2018-04-29T07:19:19.212Z,100493.45
2018-04-29T07:21:47.485Z,100486.75
2018-04-29T07:24:15.794Z,100483.92
2018-04-29T07:26:44.902Z,100500.69
2018-04-29T07:29:13.939Z,100504.56
2018-04-29T07:31:42.295Z,100492.83
2018-04-29T07:34:11.396Z,100482.20
2018-04-29T07:36:39.809Z,100476.28
2018-04-29T07:39:08.087Z,100458.39
2018-04-29T07:41:36.362Z,100460.61
2018-04-29T07:44:05.451Z,100462.41
2018-04-29T07:46:33.739Z,100463.03
2018-04-29T07:49:02.007Z,100466.56
2018-04-29T07:51:30.284Z,100475.34
2018-04-29T07:53:58.546Z,100465.11
2018-04-29T07:56:27.563Z,100456.33
2018-04-29T07:58:55.827Z,100452.16
2018-04-29T08:01:24.843Z,100455.06
2018-04-29T08:03:53.876Z,100460.52
2018-04-29T08:06:22.166Z,100459.86
2018-04-29T08:08:50.469Z,100449.52
2018-04-29T08:11:19.557Z,100450.02
2018-04-29T08:13:47.857Z,100430.39
2018-04-29T08:16:16.129Z,100437.59
2018-04-29T08:18:44.434Z,100439.48
2018-04-29T08:21:12.704Z,100445.23
2018-04-29T08:23:42.543Z,100471.55
2018-04-29T08:26:10.841Z,100475.23
2018-04-29T08:28:39.149Z,100481.14
2018-04-29T08:31:07.520Z,100475.68
2018-04-29T08:33:35.807Z,100463.72
2018-04-29T08:36:04.843Z,100471.25
2018-04-29T08:38:33.881Z,100483.20
2018-04-29T08:41:03.652Z,100491.22
2018-04-29T08:43:31.966Z,100506.94
2018-04-29T08:46:00.247Z,100471.96
2018-04-29T08:48:28.626Z,100457.27
2018-04-29T08:50:56.939Z,100444.58
2018-04-29T08:53:25.300Z,100449.81
2018-04-29T08:55:54.357Z,100465.55
2018-04-29T08:58:22.622Z,100459.02
2018-04-29T09:00:50.892Z,100449.31
2018-04-29T09:03:19.287Z,100449.12
2018-04-29T09:05:47.656Z,100463.54
2018-04-29T09:08:15.971Z,100459.40
2018-04-29T09:10:44.262Z,100437.47
2018-04-29T09:13:12.658Z,100441.35
2018-04-29T09:15:40.949Z,100435.21
2018-04-29T09:18:09.501Z,100425.18
2018-04-29T09:20:38.041Z,100420.21
2018-04-29T09:23:06.328Z,100394.29
2018-04-29T09:25:34.728Z,100378.66
2018-04-29T09:28:03.036Z,100367.45
2018-04-29T09:30:31.440Z,100364.20
2018-04-29T09:32:59.774Z,100361.71
2018-04-29T09:35:28.809Z,100365.24
2018-04-29T09:37:57.206Z,100372.67
2018-04-29T09:40:25.454Z,100364.69
2018-04-29T09:42:53.721Z,100357.91
2018-04-29T09:45:21.977Z,100371.10
2018-04-29T09:47:50.232Z,100368.25
2018-04-29T09:50:19.270Z,100369.44
2018-04-29T09:52:47.631Z,100364.37
2018-04-29T09:55:16.684Z,100368.58
2018-04-29T09:57:44.939Z,100351.12
2018-04-29T10:00:14.059Z,100350.48
2018-04-29T10:02:48.191Z,100347.70
2018-04-29T10:05:16.465Z,100351.56
2018-04-29T10:07:45.512Z,100339.77
2018-04-29T10:10:13.800Z,100331.05
2018-04-29T10:12:42.044Z,100319.95
2018-04-29T10:15:11.175Z,100306.96
2018-04-29T10:17:39.513Z,100293.17
2018-04-29T10:20:07.762Z,100292.62
2018-04-29T10:22:36.057Z,100285.73
2018-04-29T10:25:04.330Z,100277.20
2018-04-29T10:27:33.837Z,100283.34
2018-04-29T10:30:02.857Z,100283.94
2018-04-29T10:32:31.128Z,100281.39
2018-04-29T10:35:00.260Z,100270.13
2018-04-29T10:37:29.267Z,100259.60
2018-04-29T10:39:57.582Z,100256.52
2018-04-29T10:42:25.833Z,100238.19
2018-04-29T10:44:54.138Z,100238.80
2018-04-29T10:47:22.429Z,100230.51
2018-04-29T10:49:51.542Z,100221.28
2018-04-29T10:52:19.798Z,100218.84
2018-04-29T10:54:49.580Z,100213.76
2018-04-29T10:57:17.836Z,100220.03
2018-04-29T10:59:46.111Z,100215.23
2018-04-29T11:02:15.140Z,100218.47
2018-04-29T11:04:43.420Z,100220.83
2018-04-29T11:07:12.541Z,100213.39
2018-04-29T11:09:41.640Z,100214.41
2018-04-29T11:12:10.765Z,100209.38
2018-04-29T11:14:39.136Z,100210.31
2018-04-29T11:17:08.280Z,100204.36
2018-04-29T11:19:36.545Z,100206.61
2018-04-29T11:22:05.770Z,100221.97
2018-04-29T11:24:33.967Z,100211.73
2018-04-29T11:27:02.233Z,100212.22
2018-04-29T11:29:31.243Z,100212.07
2018-04-29T11:31:59.541Z,100215.09
2018-04-29T11:34:28.635Z,100202.61
2018-04-29T11:36:57.762Z,100188.67
2018-04-29T11:39:26.961Z,100183.11
2018-04-29T11:41:56.127Z,100192.68
2018-04-29T11:44:24.410Z,100189.33
2018-04-29T11:46:52.759Z,100175.41
2018-04-29T11:49:21.770Z,100163.30
2018-04-29T11:51:50.061Z,100170.09
2018-04-29T11:54:19.079Z,100159.84
2018-04-29T11:56:47.353Z,100167.23
2018-04-29T11:59:16.448Z,100176.55
2018-04-29T12:01:45.478Z,100176.36
2018-04-29T12:04:13.785Z,100176.06
2018-04-29T12:06:42.056Z,100155.39
2018-04-29T12:09:11.091Z,100147.94
2018-04-29T12:11:39.382Z,100143.75
2018-04-29T12:14:07.716Z,100149.07
2018-04-29T12:16:35.982Z,100140.94
2018-04-29T12:19:04.233Z,100126.43
2018-04-29T12:21:32.488Z,100122.77
2018-04-29T12:24:01.607Z,100117.52
2018-04-29T12:26:30.730Z,100122.23
2018-04-29T12:28:59.731Z,100111.75
2018-04-29T12:31:27.999Z,100105.00
2018-04-29T12:33:57.023Z,100104.55
2018-04-29T12:36:26.073Z,100078.08
2018-04-29T12:38:54.361Z,100075.92
2018-04-29T12:41:22.716Z,100064.97
2018-04-29T12:43:51.840Z,100062.53
2018-04-29T12:46:20.129Z,100070.20
2018-04-29T12:48:49.156Z,100063.09
2018-04-29T12:51:17.391Z,100055.22
2018-04-29T12:53:45.723Z,100057.19
2018-04-29T12:56:13.978Z,100050.64
2018-04-29T12:58:42.230Z,100030.07
2018-04-29T13:01:10.633Z,100030.55
2018-04-29T13:03:38.921Z,100026.41
2018-04-29T13:06:07.275Z,100026.28
2018-04-29T13:08:35.658Z,100016.17
2018-04-29T13:11:04.771Z,100011.23
2018-04-29T13:13:33.793Z,100002.17
2018-04-29T13:16:02.070Z,99998.20
2018-04-29T13:18:31.278Z,99995.61
2018-04-29T13:21:00.954Z,99989.95
2018-04-29T13:23:29.252Z,99984.50
2018-04-29T13:25:57.515Z,99976.11
2018-04-29T13:28:25.798Z,99971.20
2018-04-29T13:30:54.203Z,99960.85
2018-04-29T13:33:22.457Z,99958.11
2018-04-29T13:35:51.465Z,99946.80
2018-04-29T13:38:20.498Z,99955.28
2018-04-29T13:40:48.761Z,99948.13
2018-04-29T13:43:17.012Z,99956.66
2018-04-29T13:45:45.291Z,99951.21
2018-04-29T13:48:13.663Z,99936.31
2018-04-29T13:50:41.941Z,99942.72
2018-04-29T13:53:11.061Z,99929.58
2018-04-29T13:55:40.117Z,99919.31
2018-04-29T13:58:08.396Z,99931.08
2018-04-29T14:00:36.688Z,99919.14
2018-04-29T14:03:04.959Z,99918.01
2018-04-29T14:05:33.200Z,99916.57
2018-04-29T14:08:02.250Z,99921.38
2018-04-29T14:10:30.611Z,99910.61
2018-04-29T14:12:58.880Z,99910.61
2018-04-29T14:15:27.838Z,99911.63
2018-04-29T14:17:56.121Z,99896.52
2018-04-29T14:20:25.151Z,99910.48
2018-04-29T14:22:53.507Z,99909.17
2018-04-29T14:25:22.632Z,99922.05
2018-04-29T14:27:50.871Z,99905.91
2018-04-29T14:30:19.210Z,99916.67
2018-04-29T14:32:48.257Z,99915.16
2018-04-29T14:35:16.516Z,99920.91
2018-04-29T14:37:44.787Z,99907.04
2018-04-29T14:40:13.188Z,99903.73
2018-04-29T14:42:42.327Z,99904.47
2018-04-29T14:45:10.748Z,99901.34
2018-04-29T14:47:40.612Z,99921.69
2018-04-29T14:50:10.543Z,99890.38
2018-04-29T14:52:38.859Z,99897.05
2018-04-29T14:55:07.261Z,99894.52
2018-04-29T14:57:35.727Z,99903.66
2018-04-29T15:00:04.832Z,99905.00
2018-04-29T15:02:33.859Z,99915.54
2018-04-29T15:05:02.175Z,99920.06
2018-04-29T15:07:30.546Z,99910.39
2018-04-29T15:09:58.968Z,99915.39
2018-04-29T15:12:27.264Z,99919.66
2018-04-29T15:14:55.536Z,99918.47
2018-04-29T15:17:23.878Z,99911.74
2018-04-29T15:19:53.003Z,99911.97
2018-04-29T15:22:22.113Z,99890.06
2018-04-29T15:24:51.120Z,99889.16
2018-04-29T15:27:20.159Z,99879.34
2018-04-29T15:29:48.409Z,99867.81
2018-04-29T15:32:17.547Z,99863.77
2018-04-29T15:34:45.788Z,99867.22
2018-04-29T15:37:14.067Z,99859.40
2018-04-29T15:39:42.349Z,99859.97
2018-04-29T15:42:10.738Z,99860.25
2018-04-29T15:44:39.903Z,99862.50
2018-04-29T15:47:08.298Z,99851.48
2018-04-29T15:49:37.410Z,99842.95
2018-04-29T15:52:05.677Z,99845.95
2018-04-29T15:54:34.906Z,99842.27
2018-04-29T15:57:03.899Z,99849.13
2018-04-29T15:59:33.124Z,99845.80
2018-04-29T16:02:02.242Z,99849.33
2018-04-29T16:04:30.507Z,99841.89
2018-04-29T16:06:59.558Z,99838.41
2018-04-29T16:09:27.822Z,99833.91
2018-04-29T16:11:56.067Z,99849.00
2018-04-29T16:14:24.346Z,99832.84
2018-04-29T16:16:53.885Z,99829.85
2018-04-29T16:19:23.749Z,99822.16
2018-04-29T16:21:52.020Z,99803.94
2018-04-29T16:24:21.049Z,99786.48
2018-04-29T16:26:49.299Z,99781.07
2018-04-29T16:29:18.355Z,99788.84
2018-04-29T16:31:47.448Z,99797.47
2018-04-29T16:34:16.792Z,99791.41
2018-04-29T16:36:45.075Z,99796.77
2018-04-29T16:39:13.455Z,99801.81
2018-04-29T16:41:42.695Z,99800.97
2018-04-29T16:44:11.007Z,99795.72
2018-04-29T16:46:40.011Z,99791.36
2018-04-29T16:49:08.358Z,99793.38
2018-04-29T16:51:36.752Z,99796.86
2018-04-29T16:54:05.122Z,99795.73
2018-04-29T16:56:34.264Z,99780.98
2018-04-29T16:59:02.631Z,99769.11
2018-04-29T17:01:33.466Z,99760.98
2018-04-29T17:04:01.879Z,99766.44
2018-04-29T17:06:30.991Z,99766.28
2018-04-29T17:08:59.346Z,99763.63
2018-04-29T17:11:27.732Z,99759.44
2018-04-29T17:13:55.999Z,99758.96
2018-04-29T17:16:24.451Z,99749.28
2018-04-29T17:18:53.509Z,99754.16
2018-04-29T17:21:21.955Z,99754.83
2018-04-29T17:23:50.325Z,99749.76
2018-04-29T17:26:20.835Z,99742.52
2018-04-29T17:28:53.815Z,99732.44
2018-04-29T17:31:23.012Z,99729.12
2018-04-29T17:33:54.250Z,99721.75
2018-04-29T17:36:23.308Z,99717.16
2018-04-29T17:38:51.680Z,99719.25
2018-04-29T17:41:20.079Z,99714.72
2018-04-29T17:43:48.475Z,99710.88
2018-04-29T17:46:16.967Z,99707.56
2018-04-29T17:48:45.617Z,99700.50
2018-04-29T17:51:13.987Z,99694.67
2018-04-29T17:53:43.386Z,99689.52
2018-04-29T17:56:11.869Z,99694.38
2018-04-29T17:58:40.319Z,99685.92
2018-04-29T18:01:08.677Z,99679.75
2018-04-29T18:03:37.003Z,99678.81
2018-04-29T18:06:05.425Z,99677.41
2018-04-29T18:08:33.677Z,99673.86
2018-04-29T18:11:01.945Z,99666.84
2018-04-29T18:13:30.204Z,99669.14
2018-04-29T18:15:58.484Z,99674.48
2018-04-29T18:18:26.770Z,99678.80
2018-04-29T18:20:55.883Z,99671.42
2018-04-29T18:23:24.147Z,99671.91
2018-04-29T18:25:53.284Z,99662.06
2018-04-29T18:28:21.551Z,99656.07
2018-04-29T18:30:50.580Z,99663.21
2018-04-29T18:33:19.025Z,99660.97
2018-04-29T18:35:47.268Z,99668.13
2018-04-29T18:38:15.513Z,99664.22
2018-04-29T18:40:43.783Z,99668.66
2018-04-29T18:43:12.132Z,99669.64
2018-04-29T18:45:41.549Z,99665.87
2018-04-29T18:48:10.934Z,99663.32
2018-04-29T18:50:41.834Z,99657.80
2018-04-29T18:53:10.466Z,99649.64
2018-04-29T18:55:39.468Z,99646.70
2018-04-29T18:58:09.100Z,99649.64
2018-04-29T19:00:37.555Z,99651.55
2018-04-29T19:03:06.039Z,99653.75
2018-04-29T19:05:59.251Z,99645.83
2018-04-29T19:08:27.523Z,99650.92
2018-04-29T19:10:56.702Z,99649.33
2018-04-29T19:13:26.026Z,99651.67
2018-04-29T19:15:55.104Z,99638.77
2018-04-29T19:18:23.349Z,99643.52
2018-04-29T19:20:51.609Z,99639.94
2018-04-29T19:23:19.864Z,99636.96
2018-04-29T19:25:48.260Z,99638.77
2018-04-29T19:28:16.550Z,99633.42
2018-04-29T19:30:44.873Z,99639.16
2018-04-29T19:33:13.165Z,99630.91
2018-04-29T19:35:49.494Z,99617.97
2018-04-29T19:38:24.609Z,99611.98
2018-04-29T19:40:54.014Z,99594.47
2018-04-29T19:43:24.551Z,99583.19
2018-04-29T19:45:54.219Z,99572.22
2018-04-29T19:48:25.322Z,99562.42
2018-04-29T19:50:53.632Z,99565.34
2018-04-29T19:53:21.925Z,99560.92
2018-04-29T19:55:52.905Z,99564.01
2018-04-29T19:58:23.353Z,99558.50
2018-04-29T20:00:53.779Z,99548.63
2018-04-29T20:03:23.938Z,99550.12
2018-04-29T20:05:54.159Z,99536.66
2018-04-29T20:08:24.043Z,99533.49
2018-04-29T20:10:53.221Z,99528.23
2018-04-29T20:13:22.159Z,99516.33
2018-04-29T20:15:51.196Z,99504.81
2018-04-29T20:18:19.487Z,99495.25
2018-04-29T20:20:49.564Z,99486.64
2018-04-29T20:23:20.467Z,99479.64
2018-04-29T20:25:48.965Z,99473.90
2018-04-29T20:28:18.124Z,99484.62
2018-04-29T20:30:47.157Z,99487.25
2018-04-29T20:33:15.434Z,99476.16
2018-04-29T20:35:44.468Z,99474.98
2018-04-29T20:38:12.843Z,99467.66
2018-04-29T20:40:41.247Z,99454.91
2018-04-29T20:43:10.371Z,99440.33
2018-04-29T20:45:38.958Z,99430.83
2018-04-29T20:48:07.975Z,99432.84
2018-04-29T20:50:36.929Z,99425.19
2018-04-29T20:53:06.386Z,99412.30
2018-04-29T20:55:34.642Z,99402.09
2018-04-29T20:58:04.408Z,99395.09
2018-04-29T21:00:32.769Z,99391.05
2018-04-29T21:03:01.081Z,99384.56
2018-04-29T21:05:30.237Z,99374.77
2018-04-29T21:07:59.315Z,99367.02
2018-04-29T21:10:27.616Z,99356.72
2018-04-29T21:12:55.861Z,99346.75
2018-04-29T21:15:24.954Z,99344.09
2018-04-29T21:17:53.503Z,99348.69
2018-04-29T21:20:21.834Z,99332.33
2018-04-29T21:22:50.185Z,99327.72
2018-04-29T21:25:18.441Z,99329.46
2018-04-29T21:27:47.469Z,99319.75
2018-04-29T21:30:15.773Z,99314.34
2018-04-29T21:32:44.029Z,99308.47
2018-04-29T21:35:13.174Z,99294.52
2018-04-29T21:37:41.476Z,99287.88
2018-04-29T21:40:09.817Z,99277.87
2018-04-29T21:42:38.943Z,99266.78
2018-04-29T21:45:07.250Z,99261.89
2018-04-29T21:47:35.522Z,99272.61
2018-04-29T21:50:04.633Z,99256.45
2018-04-29T21:52:33.964Z,99255.56
2018-04-29T21:55:02.332Z,99264.77
2018-04-29T21:57:31.438Z,99264.24
2018-04-29T22:00:00.470Z,99260.48
2018-04-29T22:02:28.955Z,99244.28
2018-04-29T22:04:58.012Z,99252.12
2018-04-29T22:07:26.458Z,99282.72
2018-04-29T22:09:54.703Z,99306.01
2018-04-29T22:12:22.983Z,99344.69
2018-04-29T22:14:51.372Z,99361.11
2018-04-29T22:17:19.799Z,99371.75
2018-04-29T22:19:48.187Z,99346.84
2018-04-29T22:22:17.323Z,99281.42
2018-04-29T22:24:46.340Z,99246.70
2018-04-29T22:27:14.621Z,99245.58
2018-04-29T22:29:42.879Z,99250.39
2018-04-29T22:32:11.962Z,99274.67
2018-04-29T22:34:40.243Z,99345.45
2018-04-29T22:37:09.919Z,99412.79
2018-04-29T22:39:38.120Z,99467.13
2018-04-29T22:42:06.376Z,99470.72
2018-04-29T22:44:34.665Z,99457.54
2018-04-29T22:47:02.980Z,99456.50
2018-04-29T22:49:31.244Z,99445.46
2018-04-29T22:51:59.534Z,99429.92
2018-04-29T22:54:27.861Z,99423.02
2018-04-29T22:56:56.875Z,99408.69
2018-04-29T22:59:25.164Z,99410.59
2018-04-29T23:01:53.427Z,99408.76
2018-04-29T23:04:22.462Z,99403.83
2018-04-29T23:06:50.781Z,99413.89
2018-04-29T23:09:19.051Z,99401.83
2018-04-29T23:11:47.340Z,99389.02
2018-04-29T23:14:15.725Z,99381.05
2018-04-29T23:16:44.001Z,99404.53
2018-04-29T23:19:13.015Z,99440.52
2018-04-29T23:21:42.289Z,99455.06
2018-04-29T23:24:10.545Z,99434.58
2018-04-29T23:26:38.815Z,99404.70
2018-04-29T23:29:07.084Z,99398.24
2018-04-29T23:31:35.344Z,99404.59
2018-04-29T23:34:03.607Z,99382.52
2018-04-29T23:36:31.914Z,99399.57
2018-04-29T23:39:00.195Z,99398.81
2018-04-29T23:41:28.439Z,99440.76
2018-04-29T23:43:57.915Z,99448.59
2018-04-29T23:46:26.187Z,99428.80
2018-04-29T23:48:54.451Z,99386.52
2018-04-29T23:51:22.731Z,99370.56
2018-04-29T23:53:51.747Z,99338.91
2018-04-29T23:56:20.007Z,99314.83
2018-04-29T23:58:49.065Z,99323.80
